sensor_id;sensor_type;location;lat;lon;timestamp;P1;durP1;ratioP1;P2;durP2;ratioP2
8592;SDS011;4334;49.982;8.398;2023-11-21T00:00:12;3.60;;;2.03;;
8592;SDS011;4334;49.982;8.398;2023-11-21T00:02:39;5.23;;;2.03;;
8592;SDS011;4334;49.982;8.398;2023-11-21T00:05:07;4.67;;;2.40;;
8592;SDS011;4334;49.982;8.398;2023-11-21T00:07:35;4.70;;;2.00;;
8592;SDS011;4334;49.982;8.398;2023-11-21T00:10:02;2.40;;;2.07;;
8592;SDS011;4334;49.982;8.398;2023-11-21T00:12:33;5.40;;;2.10;;
8592;SDS011;4334;49.982;8.398;2023-11-21T00:15:00;6.97;;;2.33;;
8592;SDS011;4334;49.982;8.398;2023-11-21T00:17:31;4.40;;;2.40;;
8592;SDS011;4334;49.982;8.398;2023-11-21T00:19:58;2.70;;;1.83;;
8592;SDS011;4334;49.982;8.398;2023-11-21T00:22:25;5.00;;;2.17;;
8592;SDS011;4334;49.982;8.398;2023-11-21T00:24:52;2.43;;;1.80;;
8592;SDS011;4334;49.982;8.398;2023-11-21T00:27:19;7.17;;;2.93;;
8592;SDS011;4334;49.982;8.398;2023-11-21T00:29:46;2.67;;;1.77;;
8592;SDS011;4334;49.982;8.398;2023-11-21T00:32:14;4.70;;;2.37;;
8592;SDS011;4334;49.982;8.398;2023-11-21T00:34:43;5.10;;;2.43;;
8592;SDS011;4334;49.982;8.398;2023-11-21T00:37:09;2.10;;;1.73;;
8592;SDS011;4334;49.982;8.398;2023-11-21T00:39:36;4.47;;;2.10;;
8592;SDS011;4334;49.982;8.398;2023-11-21T00:42:05;3.60;;;2.40;;
8592;SDS011;4334;49.982;8.398;2023-11-21T00:44:33;4.87;;;2.63;;
8592;SDS011;4334;49.982;8.398;2023-11-21T00:47:00;3.10;;;2.13;;
8592;SDS011;4334;49.982;8.398;2023-11-21T00:49:28;7.53;;;2.60;;
8592;SDS011;4334;49.982;8.398;2023-11-21T00:51:56;5.63;;;3.20;;
8592;SDS011;4334;49.982;8.398;2023-11-21T00:54:23;4.07;;;2.67;;
8592;SDS011;4334;49.982;8.398;2023-11-21T00:56:50;6.57;;;3.30;;
8592;SDS011;4334;49.982;8.398;2023-11-21T00:59:17;4.57;;;2.90;;
8592;SDS011;4334;49.982;8.398;2023-11-21T01:01:45;4.00;;;3.03;;
8592;SDS011;4334;49.982;8.398;2023-11-21T01:04:13;5.00;;;2.70;;
8592;SDS011;4334;49.982;8.398;2023-11-21T01:06:40;4.53;;;2.77;;
8592;SDS011;4334;49.982;8.398;2023-11-21T01:09:08;4.33;;;2.77;;
8592;SDS011;4334;49.982;8.398;2023-11-21T01:11:35;6.43;;;2.80;;
8592;SDS011;4334;49.982;8.398;2023-11-21T01:14:03;3.43;;;2.40;;
8592;SDS011;4334;49.982;8.398;2023-11-21T01:16:31;4.33;;;2.50;;
8592;SDS011;4334;49.982;8.398;2023-11-21T01:18:58;4.63;;;2.73;;
8592;SDS011;4334;49.982;8.398;2023-11-21T01:21:26;4.67;;;3.07;;
8592;SDS011;4334;49.982;8.398;2023-11-21T01:23:54;4.13;;;2.80;;
8592;SDS011;4334;49.982;8.398;2023-11-21T01:26:22;7.47;;;2.80;;
8592;SDS011;4334;49.982;8.398;2023-11-21T01:28:49;5.43;;;3.33;;
8592;SDS011;4334;49.982;8.398;2023-11-21T01:31:16;4.17;;;3.00;;
8592;SDS011;4334;49.982;8.398;2023-11-21T01:33:44;4.07;;;2.67;;
8592;SDS011;4334;49.982;8.398;2023-11-21T01:36:11;5.53;;;3.07;;
8592;SDS011;4334;49.982;8.398;2023-11-21T01:38:38;2.83;;;2.53;;
8592;SDS011;4334;49.982;8.398;2023-11-21T01:41:06;4.13;;;2.63;;
8592;SDS011;4334;49.982;8.398;2023-11-21T01:43:34;6.97;;;2.70;;
8592;SDS011;4334;49.982;8.398;2023-11-21T01:46:01;3.70;;;2.73;;
8592;SDS011;4334;49.982;8.398;2023-11-21T01:48:30;4.13;;;2.40;;
8592;SDS011;4334;49.982;8.398;2023-11-21T01:50:57;7.07;;;2.70;;
8592;SDS011;4334;49.982;8.398;2023-11-21T01:53:24;5.33;;;2.67;;
8592;SDS011;4334;49.982;8.398;2023-11-21T01:55:53;6.70;;;2.70;;
8592;SDS011;4334;49.982;8.398;2023-11-21T01:58:20;4.57;;;2.50;;
8592;SDS011;4334;49.982;8.398;2023-11-21T02:00:49;3.70;;;2.70;;
8592;SDS011;4334;49.982;8.398;2023-11-21T02:03:16;7.10;;;2.70;;
8592;SDS011;4334;49.982;8.398;2023-11-21T02:05:43;5.07;;;3.07;;
8592;SDS011;4334;49.982;8.398;2023-11-21T02:08:10;5.90;;;3.07;;
8592;SDS011;4334;49.982;8.398;2023-11-21T02:10:37;5.83;;;2.80;;
8592;SDS011;4334;49.982;8.398;2023-11-21T02:13:04;5.00;;;2.70;;
8592;SDS011;4334;49.982;8.398;2023-11-21T02:15:31;4.17;;;2.80;;
8592;SDS011;4334;49.982;8.398;2023-11-21T02:17:59;4.93;;;2.93;;
8592;SDS011;4334;49.982;8.398;2023-11-21T02:20:28;6.13;;;2.80;;
8592;SDS011;4334;49.982;8.398;2023-11-21T02:22:56;8.73;;;3.23;;
8592;SDS011;4334;49.982;8.398;2023-11-21T02:25:24;5.20;;;2.90;;
8592;SDS011;4334;49.982;8.398;2023-11-21T02:27:52;5.57;;;2.67;;
8592;SDS011;4334;49.982;8.398;2023-11-21T02:30:20;4.00;;;2.50;;
8592;SDS011;4334;49.982;8.398;2023-11-21T02:32:47;6.13;;;2.97;;
8592;SDS011;4334;49.982;8.398;2023-11-21T02:35:14;4.17;;;2.83;;
8592;SDS011;4334;49.982;8.398;2023-11-21T02:37:41;6.53;;;3.30;;
8592;SDS011;4334;49.982;8.398;2023-11-21T02:40:10;4.90;;;2.87;;
8592;SDS011;4334;49.982;8.398;2023-11-21T02:42:38;7.23;;;3.23;;
8592;SDS011;4334;49.982;8.398;2023-11-21T02:45:06;4.57;;;2.47;;
8592;SDS011;4334;49.982;8.398;2023-11-21T02:47:34;4.30;;;2.60;;
8592;SDS011;4334;49.982;8.398;2023-11-21T02:50:01;6.13;;;2.67;;
8592;SDS011;4334;49.982;8.398;2023-11-21T02:52:29;4.90;;;2.93;;
8592;SDS011;4334;49.982;8.398;2023-11-21T02:54:58;3.40;;;2.43;;
8592;SDS011;4334;49.982;8.398;2023-11-21T02:57:26;4.77;;;2.90;;
8592;SDS011;4334;49.982;8.398;2023-11-21T02:59:53;4.63;;;2.87;;
8592;SDS011;4334;49.982;8.398;2023-11-21T03:02:20;4.50;;;3.13;;
8592;SDS011;4334;49.982;8.398;2023-11-21T03:04:47;4.87;;;2.70;;
8592;SDS011;4334;49.982;8.398;2023-11-21T03:07:14;5.50;;;3.00;;
8592;SDS011;4334;49.982;8.398;2023-11-21T03:09:41;3.60;;;2.80;;
8592;SDS011;4334;49.982;8.398;2023-11-21T03:12:09;9.63;;;3.20;;
8592;SDS011;4334;49.982;8.398;2023-11-21T03:14:38;4.57;;;2.73;;
8592;SDS011;4334;49.982;8.398;2023-11-21T03:17:05;9.10;;;3.50;;
8592;SDS011;4334;49.982;8.398;2023-11-21T03:19:32;5.10;;;2.90;;
8592;SDS011;4334;49.982;8.398;2023-11-21T03:21:59;6.80;;;3.23;;
8592;SDS011;4334;49.982;8.398;2023-11-21T03:24:26;5.20;;;3.30;;
8592;SDS011;4334;49.982;8.398;2023-11-21T03:26:52;5.50;;;3.50;;
8592;SDS011;4334;49.982;8.398;2023-11-21T03:29:19;5.27;;;3.63;;
8592;SDS011;4334;49.982;8.398;2023-11-21T03:31:48;5.90;;;3.37;;
8592;SDS011;4334;49.982;8.398;2023-11-21T03:34:15;5.07;;;3.30;;
8592;SDS011;4334;49.982;8.398;2023-11-21T03:36:50;10.83;;;3.93;;
8592;SDS011;4334;49.982;8.398;2023-11-21T03:39:17;5.37;;;3.70;;
8592;SDS011;4334;49.982;8.398;2023-11-21T03:41:45;10.70;;;4.87;;
8592;SDS011;4334;49.982;8.398;2023-11-21T03:44:13;6.33;;;4.57;;
8592;SDS011;4334;49.982;8.398;2023-11-21T03:46:40;9.17;;;4.50;;
8592;SDS011;4334;49.982;8.398;2023-11-21T03:49:08;7.50;;;4.47;;
8592;SDS011;4334;49.982;8.398;2023-11-21T03:51:36;8.30;;;3.83;;
8592;SDS011;4334;49.982;8.398;2023-11-21T03:54:02;5.93;;;4.13;;
8592;SDS011;4334;49.982;8.398;2023-11-21T03:56:29;6.90;;;4.67;;
8592;SDS011;4334;49.982;8.398;2023-11-21T03:58:56;9.87;;;5.03;;
8592;SDS011;4334;49.982;8.398;2023-11-21T04:01:24;9.83;;;4.77;;
8592;SDS011;4334;49.982;8.398;2023-11-21T04:03:51;8.93;;;5.13;;
8592;SDS011;4334;49.982;8.398;2023-11-21T04:06:19;7.47;;;4.73;;
8592;SDS011;4334;49.982;8.398;2023-11-21T04:08:46;9.03;;;4.77;;
8592;SDS011;4334;49.982;8.398;2023-11-21T04:11:13;9.10;;;4.60;;
8592;SDS011;4334;49.982;8.398;2023-11-21T04:13:40;8.67;;;4.63;;
8592;SDS011;4334;49.982;8.398;2023-11-21T04:16:08;6.87;;;4.23;;
8592;SDS011;4334;49.982;8.398;2023-11-21T04:18:35;7.20;;;4.70;;
8592;SDS011;4334;49.982;8.398;2023-11-21T04:21:03;7.20;;;4.63;;
8592;SDS011;4334;49.982;8.398;2023-11-21T04:23:33;6.93;;;4.63;;
8592;SDS011;4334;49.982;8.398;2023-11-21T04:26:00;8.30;;;4.83;;
8592;SDS011;4334;49.982;8.398;2023-11-21T04:28:28;6.80;;;4.27;;
8592;SDS011;4334;49.982;8.398;2023-11-21T04:30:56;7.60;;;4.37;;
8592;SDS011;4334;49.982;8.398;2023-11-21T04:33:22;10.30;;;5.10;;
8592;SDS011;4334;49.982;8.398;2023-11-21T04:35:50;6.20;;;4.63;;
8592;SDS011;4334;49.982;8.398;2023-11-21T04:38:17;8.27;;;4.73;;
8592;SDS011;4334;49.982;8.398;2023-11-21T04:40:46;5.47;;;3.93;;
8592;SDS011;4334;49.982;8.398;2023-11-21T04:43:13;6.27;;;4.30;;
8592;SDS011;4334;49.982;8.398;2023-11-21T04:45:40;8.43;;;5.30;;
8592;SDS011;4334;49.982;8.398;2023-11-21T04:48:07;7.20;;;4.60;;
8592;SDS011;4334;49.982;8.398;2023-11-21T04:50:35;10.23;;;5.60;;
8592;SDS011;4334;49.982;8.398;2023-11-21T04:53:02;8.27;;;5.13;;
8592;SDS011;4334;49.982;8.398;2023-11-21T04:55:30;6.80;;;4.43;;
8592;SDS011;4334;49.982;8.398;2023-11-21T04:57:59;5.97;;;4.60;;
8592;SDS011;4334;49.982;8.398;2023-11-21T05:00:26;7.73;;;5.10;;
8592;SDS011;4334;49.982;8.398;2023-11-21T05:02:54;8.57;;;4.63;;
8592;SDS011;4334;49.982;8.398;2023-11-21T05:05:21;9.50;;;5.07;;
8592;SDS011;4334;49.982;8.398;2023-11-21T05:07:49;10.00;;;4.87;;
8592;SDS011;4334;49.982;8.398;2023-11-21T05:10:17;8.90;;;5.37;;
8592;SDS011;4334;49.982;8.398;2023-11-21T05:12:43;9.97;;;6.13;;
8592;SDS011;4334;49.982;8.398;2023-11-21T05:15:13;7.93;;;4.97;;
8592;SDS011;4334;49.982;8.398;2023-11-21T05:17:42;10.63;;;5.50;;
8592;SDS011;4334;49.982;8.398;2023-11-21T05:20:10;9.37;;;5.50;;
8592;SDS011;4334;49.982;8.398;2023-11-21T05:22:38;9.20;;;5.27;;
8592;SDS011;4334;49.982;8.398;2023-11-21T05:25:07;10.20;;;5.67;;
8592;SDS011;4334;49.982;8.398;2023-11-21T05:27:34;7.97;;;5.00;;
8592;SDS011;4334;49.982;8.398;2023-11-21T05:30:02;12.47;;;5.70;;
8592;SDS011;4334;49.982;8.398;2023-11-21T05:32:33;11.40;;;6.80;;
8592;SDS011;4334;49.982;8.398;2023-11-21T05:35:00;11.80;;;6.27;;
8592;SDS011;4334;49.982;8.398;2023-11-21T05:37:27;9.27;;;5.70;;
8592;SDS011;4334;49.982;8.398;2023-11-21T05:39:55;9.63;;;5.77;;
8592;SDS011;4334;49.982;8.398;2023-11-21T05:42:22;9.23;;;5.30;;
8592;SDS011;4334;49.982;8.398;2023-11-21T05:44:49;8.50;;;5.03;;
8592;SDS011;4334;49.982;8.398;2023-11-21T05:47:16;8.63;;;5.40;;
8592;SDS011;4334;49.982;8.398;2023-11-21T05:49:45;7.53;;;5.10;;
8592;SDS011;4334;49.982;8.398;2023-11-21T05:52:15;6.77;;;4.57;;
8592;SDS011;4334;49.982;8.398;2023-11-21T05:54:43;9.97;;;4.70;;
8592;SDS011;4334;49.982;8.398;2023-11-21T05:57:10;7.33;;;4.13;;
8592;SDS011;4334;49.982;8.398;2023-11-21T05:59:37;6.00;;;4.13;;
8592;SDS011;4334;49.982;8.398;2023-11-21T06:02:04;7.43;;;4.50;;
8592;SDS011;4334;49.982;8.398;2023-11-21T06:04:32;6.40;;;4.17;;
8592;SDS011;4334;49.982;8.398;2023-11-21T06:07:01;7.80;;;4.23;;
8592;SDS011;4334;49.982;8.398;2023-11-21T06:09:27;5.87;;;4.27;;
8592;SDS011;4334;49.982;8.398;2023-11-21T06:11:55;8.03;;;4.77;;
8592;SDS011;4334;49.982;8.398;2023-11-21T06:14:23;7.07;;;4.27;;
8592;SDS011;4334;49.982;8.398;2023-11-21T06:16:50;7.57;;;4.40;;
8592;SDS011;4334;49.982;8.398;2023-11-21T06:19:17;6.77;;;4.33;;
8592;SDS011;4334;49.982;8.398;2023-11-21T06:21:45;6.50;;;4.53;;
8592;SDS011;4334;49.982;8.398;2023-11-21T06:24:14;7.80;;;4.67;;
8592;SDS011;4334;49.982;8.398;2023-11-21T06:26:42;8.27;;;4.63;;
8592;SDS011;4334;49.982;8.398;2023-11-21T06:29:10;7.53;;;4.20;;
8592;SDS011;4334;49.982;8.398;2023-11-21T06:31:37;7.00;;;4.27;;
8592;SDS011;4334;49.982;8.398;2023-11-21T06:34:05;11.37;;;4.90;;
8592;SDS011;4334;49.982;8.398;2023-11-21T06:36:34;7.83;;;4.47;;
8592;SDS011;4334;49.982;8.398;2023-11-21T06:39:01;7.10;;;4.47;;
8592;SDS011;4334;49.982;8.398;2023-11-21T06:41:29;6.70;;;4.07;;
8592;SDS011;4334;49.982;8.398;2023-11-21T06:43:56;8.23;;;3.90;;
8592;SDS011;4334;49.982;8.398;2023-11-21T06:46:24;5.90;;;3.73;;
8592;SDS011;4334;49.982;8.398;2023-11-21T06:48:51;4.70;;;3.40;;
8592;SDS011;4334;49.982;8.398;2023-11-21T06:51:18;6.30;;;3.70;;
8592;SDS011;4334;49.982;8.398;2023-11-21T06:53:45;4.77;;;2.97;;
8592;SDS011;4334;49.982;8.398;2023-11-21T06:56:15;4.77;;;3.33;;
8592;SDS011;4334;49.982;8.398;2023-11-21T06:58:43;4.73;;;3.47;;
8592;SDS011;4334;49.982;8.398;2023-11-21T07:01:11;6.57;;;3.60;;
8592;SDS011;4334;49.982;8.398;2023-11-21T07:03:38;4.53;;;3.33;;
8592;SDS011;4334;49.982;8.398;2023-11-21T07:06:06;6.57;;;3.20;;
8592;SDS011;4334;49.982;8.398;2023-11-21T07:08:33;6.37;;;3.50;;
8592;SDS011;4334;49.982;8.398;2023-11-21T07:11:01;5.47;;;3.60;;
8592;SDS011;4334;49.982;8.398;2023-11-21T07:13:28;7.03;;;3.57;;
8592;SDS011;4334;49.982;8.398;2023-11-21T07:15:57;5.93;;;3.87;;
8592;SDS011;4334;49.982;8.398;2023-11-21T07:18:25;7.43;;;3.10;;
8592;SDS011;4334;49.982;8.398;2023-11-21T07:20:52;5.50;;;3.63;;
8592;SDS011;4334;49.982;8.398;2023-11-21T07:23:19;4.57;;;3.50;;
8592;SDS011;4334;49.982;8.398;2023-11-21T07:25:47;9.23;;;3.73;;
8592;SDS011;4334;49.982;8.398;2023-11-21T07:28:14;6.37;;;3.67;;
8592;SDS011;4334;49.982;8.398;2023-11-21T07:30:41;5.23;;;3.60;;
8592;SDS011;4334;49.982;8.398;2023-11-21T07:33:10;5.70;;;3.57;;
8592;SDS011;4334;49.982;8.398;2023-11-21T07:35:37;4.90;;;3.13;;
8592;SDS011;4334;49.982;8.398;2023-11-21T07:38:04;5.53;;;3.50;;
8592;SDS011;4334;49.982;8.398;2023-11-21T07:40:31;5.77;;;3.83;;
8592;SDS011;4334;49.982;8.398;2023-11-21T07:42:57;5.50;;;3.50;;
8592;SDS011;4334;49.982;8.398;2023-11-21T07:45:25;5.57;;;3.60;;
8592;SDS011;4334;49.982;8.398;2023-11-21T07:47:52;5.20;;;3.63;;
8592;SDS011;4334;49.982;8.398;2023-11-21T07:50:21;6.40;;;4.10;;
8592;SDS011;4334;49.982;8.398;2023-11-21T07:52:49;6.43;;;3.80;;
8592;SDS011;4334;49.982;8.398;2023-11-21T07:55:15;5.03;;;3.70;;
8592;SDS011;4334;49.982;8.398;2023-11-21T07:57:42;6.73;;;4.20;;
8592;SDS011;4334;49.982;8.398;2023-11-21T08:00:10;8.47;;;3.80;;
8592;SDS011;4334;49.982;8.398;2023-11-21T08:02:38;5.17;;;3.43;;
8592;SDS011;4334;49.982;8.398;2023-11-21T08:05:07;5.10;;;3.53;;
8592;SDS011;4334;49.982;8.398;2023-11-21T08:07:37;6.00;;;3.60;;
8592;SDS011;4334;49.982;8.398;2023-11-21T08:10:04;5.93;;;3.50;;
8592;SDS011;4334;49.982;8.398;2023-11-21T08:12:35;6.97;;;3.57;;
8592;SDS011;4334;49.982;8.398;2023-11-21T08:15:02;5.57;;;3.43;;
8592;SDS011;4334;49.982;8.398;2023-11-21T08:17:30;4.70;;;3.30;;
8592;SDS011;4334;49.982;8.398;2023-11-21T08:19:58;6.17;;;3.00;;
8592;SDS011;4334;49.982;8.398;2023-11-21T08:22:24;4.27;;;3.03;;
8592;SDS011;4334;49.982;8.398;2023-11-21T08:24:52;5.30;;;2.77;;
8592;SDS011;4334;49.982;8.398;2023-11-21T08:27:20;5.40;;;2.90;;
8592;SDS011;4334;49.982;8.398;2023-11-21T08:29:47;4.03;;;3.10;;
8592;SDS011;4334;49.982;8.398;2023-11-21T08:32:15;4.17;;;2.90;;
8592;SDS011;4334;49.982;8.398;2023-11-21T08:34:42;3.80;;;2.90;;
8592;SDS011;4334;49.982;8.398;2023-11-21T08:37:10;2.93;;;2.50;;
8592;SDS011;4334;49.982;8.398;2023-11-21T08:39:37;3.97;;;2.33;;
8592;SDS011;4334;49.982;8.398;2023-11-21T08:42:05;3.70;;;2.77;;
8592;SDS011;4334;49.982;8.398;2023-11-21T08:44:33;3.70;;;2.80;;
8592;SDS011;4334;49.982;8.398;2023-11-21T08:47:00;3.60;;;2.57;;
8592;SDS011;4334;49.982;8.398;2023-11-21T08:49:27;3.97;;;2.70;;
8592;SDS011;4334;49.982;8.398;2023-11-21T08:51:54;3.37;;;2.60;;
8592;SDS011;4334;49.982;8.398;2023-11-21T08:54:22;3.43;;;2.60;;
8592;SDS011;4334;49.982;8.398;2023-11-21T08:56:50;6.20;;;2.70;;
8592;SDS011;4334;49.982;8.398;2023-11-21T08:59:18;3.23;;;2.40;;
8592;SDS011;4334;49.982;8.398;2023-11-21T09:01:45;3.13;;;2.40;;
8592;SDS011;4334;49.982;8.398;2023-11-21T09:04:12;4.30;;;2.67;;
8592;SDS011;4334;49.982;8.398;2023-11-21T09:06:39;7.17;;;2.87;;
8592;SDS011;4334;49.982;8.398;2023-11-21T09:09:06;4.20;;;2.93;;
8592;SDS011;4334;49.982;8.398;2023-11-21T09:11:33;4.53;;;2.47;;
8592;SDS011;4334;49.982;8.398;2023-11-21T09:14:00;2.90;;;2.37;;
8592;SDS011;4334;49.982;8.398;2023-11-21T09:16:29;8.07;;;2.90;;
8592;SDS011;4334;49.982;8.398;2023-11-21T09:18:56;3.87;;;2.63;;
8592;SDS011;4334;49.982;8.398;2023-11-21T09:21:24;3.53;;;2.53;;
8592;SDS011;4334;49.982;8.398;2023-11-21T09:23:52;3.80;;;2.17;;
8592;SDS011;4334;49.982;8.398;2023-11-21T09:26:19;2.60;;;2.00;;
8592;SDS011;4334;49.982;8.398;2023-11-21T09:28:46;2.87;;;1.87;;
8592;SDS011;4334;49.982;8.398;2023-11-21T09:31:13;2.93;;;1.90;;
8592;SDS011;4334;49.982;8.398;2023-11-21T09:33:42;2.50;;;1.67;;
8592;SDS011;4334;49.982;8.398;2023-11-21T09:36:11;2.30;;;1.80;;
8592;SDS011;4334;49.982;8.398;2023-11-21T09:38:39;2.53;;;1.93;;
8592;SDS011;4334;49.982;8.398;2023-11-21T09:41:08;2.30;;;1.90;;
8592;SDS011;4334;49.982;8.398;2023-11-21T09:43:42;2.90;;;2.20;;
8592;SDS011;4334;49.982;8.398;2023-11-21T09:46:12;3.27;;;2.27;;
8592;SDS011;4334;49.982;8.398;2023-11-21T09:48:47;2.53;;;1.87;;
8592;SDS011;4334;49.982;8.398;2023-11-21T09:51:16;3.77;;;1.93;;
8592;SDS011;4334;49.982;8.398;2023-11-21T09:53:46;2.33;;;2.00;;
8592;SDS011;4334;49.982;8.398;2023-11-21T09:56:17;2.20;;;2.00;;
8592;SDS011;4334;49.982;8.398;2023-11-21T09:58:50;3.90;;;2.17;;
8592;SDS011;4334;49.982;8.398;2023-11-21T10:01:18;5.40;;;2.60;;
8592;SDS011;4334;49.982;8.398;2023-11-21T10:03:47;5.27;;;2.20;;
8592;SDS011;4334;49.982;8.398;2023-11-21T10:06:13;3.30;;;2.10;;
8592;SDS011;4334;49.982;8.398;2023-11-21T10:08:41;6.70;;;1.97;;
8592;SDS011;4334;49.982;8.398;2023-11-21T10:11:08;5.53;;;2.40;;
8592;SDS011;4334;49.982;8.398;2023-11-21T10:13:39;3.30;;;2.03;;
8592;SDS011;4334;49.982;8.398;2023-11-21T10:16:07;2.20;;;1.80;;
8592;SDS011;4334;49.982;8.398;2023-11-21T10:18:39;2.70;;;2.03;;
8592;SDS011;4334;49.982;8.398;2023-11-21T10:21:08;3.50;;;1.93;;
8592;SDS011;4334;49.982;8.398;2023-11-21T10:23:36;4.07;;;1.90;;
8592;SDS011;4334;49.982;8.398;2023-11-21T10:26:03;4.13;;;1.93;;
8592;SDS011;4334;49.982;8.398;2023-11-21T10:28:35;2.83;;;1.90;;
8592;SDS011;4334;49.982;8.398;2023-11-21T10:31:02;5.80;;;2.17;;
8592;SDS011;4334;49.982;8.398;2023-11-21T10:33:32;3.37;;;1.93;;
8592;SDS011;4334;49.982;8.398;2023-11-21T10:35:59;4.00;;;1.80;;
8592;SDS011;4334;49.982;8.398;2023-11-21T10:38:30;5.00;;;2.00;;
8592;SDS011;4334;49.982;8.398;2023-11-21T10:41:09;3.13;;;2.30;;
8592;SDS011;4334;49.982;8.398;2023-11-21T10:43:40;3.77;;;2.10;;
8592;SDS011;4334;49.982;8.398;2023-11-21T10:46:07;4.33;;;2.03;;
8592;SDS011;4334;49.982;8.398;2023-11-21T10:48:34;3.70;;;2.03;;
8592;SDS011;4334;49.982;8.398;2023-11-21T10:51:01;6.23;;;2.57;;
8592;SDS011;4334;49.982;8.398;2023-11-21T10:53:35;3.37;;;2.00;;
8592;SDS011;4334;49.982;8.398;2023-11-21T10:56:05;4.33;;;2.27;;
8592;SDS011;4334;49.982;8.398;2023-11-21T10:58:35;2.87;;;1.73;;
8592;SDS011;4334;49.982;8.398;2023-11-21T11:01:03;2.90;;;2.10;;
8592;SDS011;4334;49.982;8.398;2023-11-21T11:03:34;4.50;;;2.27;;
8592;SDS011;4334;49.982;8.398;2023-11-21T11:06:02;6.33;;;1.90;;
8592;SDS011;4334;49.982;8.398;2023-11-21T11:08:33;4.63;;;2.20;;
8592;SDS011;4334;49.982;8.398;2023-11-21T11:11:02;3.67;;;1.97;;
8592;SDS011;4334;49.982;8.398;2023-11-21T11:13:30;4.47;;;1.80;;
8592;SDS011;4334;49.982;8.398;2023-11-21T11:15:58;3.37;;;1.97;;
8592;SDS011;4334;49.982;8.398;2023-11-21T11:18:26;3.37;;;1.83;;
8592;SDS011;4334;49.982;8.398;2023-11-21T11:20:54;2.67;;;1.90;;
8592;SDS011;4334;49.982;8.398;2023-11-21T11:23:34;2.77;;;1.90;;
8592;SDS011;4334;49.982;8.398;2023-11-21T11:26:15;4.80;;;2.00;;
8592;SDS011;4334;49.982;8.398;2023-11-21T11:28:57;2.80;;;1.90;;
8592;SDS011;4334;49.982;8.398;2023-11-21T11:31:35;2.60;;;1.70;;
8592;SDS011;4334;49.982;8.398;2023-11-21T11:34:08;3.97;;;2.37;;
8592;SDS011;4334;49.982;8.398;2023-11-21T11:36:47;3.50;;;2.13;;
8592;SDS011;4334;49.982;8.398;2023-11-21T11:39:34;5.20;;;1.70;;
8592;SDS011;4334;49.982;8.398;2023-11-21T11:42:03;3.53;;;2.20;;
8592;SDS011;4334;49.982;8.398;2023-11-21T11:44:48;5.03;;;2.00;;
8592;SDS011;4334;49.982;8.398;2023-11-21T11:47:22;4.10;;;2.30;;
8592;SDS011;4334;49.982;8.398;2023-11-21T11:50:03;3.57;;;2.20;;
8592;SDS011;4334;49.982;8.398;2023-11-21T11:52:37;4.10;;;2.07;;
8592;SDS011;4334;49.982;8.398;2023-11-21T11:55:07;3.80;;;1.80;;
8592;SDS011;4334;49.982;8.398;2023-11-21T11:57:36;4.00;;;2.10;;
8592;SDS011;4334;49.982;8.398;2023-11-21T12:00:08;4.53;;;2.17;;
8592;SDS011;4334;49.982;8.398;2023-11-21T12:02:41;3.73;;;2.00;;
8592;SDS011;4334;49.982;8.398;2023-11-21T12:05:10;4.50;;;1.77;;
8592;SDS011;4334;49.982;8.398;2023-11-21T12:07:41;3.43;;;1.73;;
8592;SDS011;4334;49.982;8.398;2023-11-21T12:10:12;4.03;;;2.20;;
8592;SDS011;4334;49.982;8.398;2023-11-21T12:12:43;4.00;;;2.50;;
8592;SDS011;4334;49.982;8.398;2023-11-21T12:15:14;6.77;;;2.40;;
8592;SDS011;4334;49.982;8.398;2023-11-21T12:17:41;4.50;;;2.40;;
8592;SDS011;4334;49.982;8.398;2023-11-21T12:20:09;3.47;;;2.30;;
8592;SDS011;4334;49.982;8.398;2023-11-21T12:22:43;3.00;;;2.10;;
8592;SDS011;4334;49.982;8.398;2023-11-21T12:25:14;3.70;;;2.00;;
8592;SDS011;4334;49.982;8.398;2023-11-21T12:27:43;2.57;;;1.90;;
8592;SDS011;4334;49.982;8.398;2023-11-21T12:30:11;4.77;;;2.10;;
8592;SDS011;4334;49.982;8.398;2023-11-21T12:32:40;9.27;;;2.00;;
8592;SDS011;4334;49.982;8.398;2023-11-21T12:35:08;2.83;;;2.10;;
8592;SDS011;4334;49.982;8.398;2023-11-21T12:37:36;2.67;;;1.80;;
8592;SDS011;4334;49.982;8.398;2023-11-21T12:40:04;4.60;;;2.13;;
8592;SDS011;4334;49.982;8.398;2023-11-21T12:42:33;2.27;;;1.97;;
8592;SDS011;4334;49.982;8.398;2023-11-21T12:45:09;4.50;;;2.47;;
8592;SDS011;4334;49.982;8.398;2023-11-21T12:47:45;6.47;;;2.40;;
8592;SDS011;4334;49.982;8.398;2023-11-21T12:50:13;4.33;;;2.30;;
8592;SDS011;4334;49.982;8.398;2023-11-21T12:52:43;3.37;;;2.10;;
8592;SDS011;4334;49.982;8.398;2023-11-21T12:55:13;3.60;;;2.20;;
8592;SDS011;4334;49.982;8.398;2023-11-21T12:57:45;4.47;;;2.10;;
8592;SDS011;4334;49.982;8.398;2023-11-21T13:00:12;2.83;;;2.27;;
8592;SDS011;4334;49.982;8.398;2023-11-21T13:02:52;4.90;;;2.23;;
8592;SDS011;4334;49.982;8.398;2023-11-21T13:05:25;2.87;;;2.40;;
8592;SDS011;4334;49.982;8.398;2023-11-21T13:07:56;3.97;;;2.30;;
8592;SDS011;4334;49.982;8.398;2023-11-21T13:10:25;6.20;;;2.53;;
8592;SDS011;4334;49.982;8.398;2023-11-21T13:12:57;4.30;;;2.20;;
8592;SDS011;4334;49.982;8.398;2023-11-21T13:15:25;3.73;;;2.43;;
8592;SDS011;4334;49.982;8.398;2023-11-21T13:17:52;3.53;;;2.57;;
8592;SDS011;4334;49.982;8.398;2023-11-21T13:20:21;3.83;;;2.50;;
8592;SDS011;4334;49.982;8.398;2023-11-21T13:22:49;3.43;;;2.30;;
8592;SDS011;4334;49.982;8.398;2023-11-21T13:25:19;5.47;;;2.40;;
8592;SDS011;4334;49.982;8.398;2023-11-21T13:27:46;4.00;;;2.30;;
8592;SDS011;4334;49.982;8.398;2023-11-21T13:30:15;4.30;;;2.43;;
8592;SDS011;4334;49.982;8.398;2023-11-21T13:32:43;5.00;;;2.80;;
8592;SDS011;4334;49.982;8.398;2023-11-21T13:35:11;4.83;;;2.77;;
8592;SDS011;4334;49.982;8.398;2023-11-21T13:37:48;4.00;;;2.53;;
8592;SDS011;4334;49.982;8.398;2023-11-21T13:40:21;5.73;;;2.50;;
8592;SDS011;4334;49.982;8.398;2023-11-21T13:42:51;3.57;;;2.57;;
8592;SDS011;4334;49.982;8.398;2023-11-21T13:45:21;4.20;;;2.70;;
8592;SDS011;4334;49.982;8.398;2023-11-21T13:47:49;4.33;;;2.50;;
8592;SDS011;4334;49.982;8.398;2023-11-21T13:50:17;6.37;;;2.47;;
8592;SDS011;4334;49.982;8.398;2023-11-21T13:52:48;3.37;;;2.60;;
8592;SDS011;4334;49.982;8.398;2023-11-21T13:55:16;4.00;;;2.60;;
8592;SDS011;4334;49.982;8.398;2023-11-21T13:57:43;4.23;;;2.70;;
8592;SDS011;4334;49.982;8.398;2023-11-21T14:00:14;3.00;;;2.20;;
8592;SDS011;4334;49.982;8.398;2023-11-21T14:03:07;5.00;;;2.90;;
8592;SDS011;4334;49.982;8.398;2023-11-21T14:05:42;5.97;;;3.17;;
8592;SDS011;4334;49.982;8.398;2023-11-21T14:08:09;7.07;;;3.13;;
8592;SDS011;4334;49.982;8.398;2023-11-21T14:10:38;4.70;;;2.60;;
8592;SDS011;4334;49.982;8.398;2023-11-21T14:13:09;4.20;;;2.80;;
8592;SDS011;4334;49.982;8.398;2023-11-21T14:15:37;4.37;;;3.20;;
8592;SDS011;4334;49.982;8.398;2023-11-21T14:18:09;3.47;;;2.80;;
8592;SDS011;4334;49.982;8.398;2023-11-21T14:20:39;5.03;;;2.87;;
8592;SDS011;4334;49.982;8.398;2023-11-21T14:23:06;5.90;;;2.97;;
8592;SDS011;4334;49.982;8.398;2023-11-21T14:25:33;5.60;;;3.33;;
8592;SDS011;4334;49.982;8.398;2023-11-21T14:28:01;5.83;;;2.93;;
8592;SDS011;4334;49.982;8.398;2023-11-21T14:30:31;5.10;;;3.53;;
8592;SDS011;4334;49.982;8.398;2023-11-21T14:33:00;5.33;;;3.20;;
8592;SDS011;4334;49.982;8.398;2023-11-21T14:35:28;5.77;;;3.30;;
8592;SDS011;4334;49.982;8.398;2023-11-21T14:37:57;5.17;;;3.07;;
8592;SDS011;4334;49.982;8.398;2023-11-21T14:40:25;5.03;;;3.27;;
8592;SDS011;4334;49.982;8.398;2023-11-21T14:42:58;4.83;;;2.83;;
8592;SDS011;4334;49.982;8.398;2023-11-21T14:45:25;6.27;;;3.07;;
8592;SDS011;4334;49.982;8.398;2023-11-21T14:47:53;4.27;;;2.40;;
8592;SDS011;4334;49.982;8.398;2023-11-21T14:50:32;3.87;;;2.97;;
8592;SDS011;4334;49.982;8.398;2023-11-21T14:53:17;6.27;;;3.10;;
8592;SDS011;4334;49.982;8.398;2023-11-21T14:56:04;5.60;;;3.37;;
8592;SDS011;4334;49.982;8.398;2023-11-21T14:58:32;5.27;;;3.37;;
8592;SDS011;4334;49.982;8.398;2023-11-21T15:01:00;5.17;;;3.37;;
8592;SDS011;4334;49.982;8.398;2023-11-21T15:03:26;6.13;;;3.10;;
8592;SDS011;4334;49.982;8.398;2023-11-21T15:06:18;6.77;;;3.07;;
8592;SDS011;4334;49.982;8.398;2023-11-21T15:08:54;4.07;;;3.10;;
8592;SDS011;4334;49.982;8.398;2023-11-21T15:11:58;5.60;;;3.00;;
8592;SDS011;4334;49.982;8.398;2023-11-21T15:14:34;5.07;;;3.03;;
8592;SDS011;4334;49.982;8.398;2023-11-21T15:17:02;5.47;;;3.10;;
8592;SDS011;4334;49.982;8.398;2023-11-21T15:19:29;6.97;;;3.73;;
8592;SDS011;4334;49.982;8.398;2023-11-21T15:21:57;5.17;;;3.10;;
8592;SDS011;4334;49.982;8.398;2023-11-21T15:24:24;9.30;;;3.77;;